Time;durP1;ratioP1;P1;durP2;ratioP2;P2;SDS_P1;SDS_P2;PMS_P1;PMS_P2;Temp;Humidity;BMP_temperature;BMP_pressure;BME280_temperature;BME280_humidity;BME280_pressure;Samples;Min_cycle;Max_cycle;Signal;HPM_P1;HPM_P2
2023/04/30 00:00:28;;;;;;;6.25;2.72;;;11.70;99.90;;;;;;4846586;29;20045;-92
2023/04/30 00:02:54;;;;;;;6.47;2.95;;;11.70;99.90;;;;;;4846041;29;20046;-92
2023/04/30 00:05:20;;;;;;;8.70;3.40;;;11.60;99.90;;;;;;4876357;29;20068;-92
2023/04/30 00:07:45;;;;;;;7.65;3.03;;;11.60;99.90;;;;;;4880244;29;20060;-91
2023/04/30 00:10:11;;;;;;;9.02;3.70;;;11.60;99.90;;;;;;4862837;29;20100;-92
2023/04/30 00:12:37;;;;;;;8.15;3.30;;;11.50;99.90;;;;;;4855288;29;20054;-91
2023/04/30 00:15:03;;;;;;;7.97;3.75;;;11.60;99.90;;;;;;4848452;29;20049;-92
2023/04/30 00:17:29;;;;;;;7.45;3.22;;;11.50;99.90;;;;;;4867629;29;20457;-92
2023/04/30 00:19:55;;;;;;;8.60;3.28;;;11.50;99.90;;;;;;4864089;29;20045;-93
2023/04/30 00:22:20;;;;;;;7.13;3.05;;;11.40;99.90;;;;;;4864614;29;20397;-93
2023/04/30 00:24:46;;;;;;;6.97;3.35;;;11.40;99.90;;;;;;4883990;29;20049;-92
2023/04/30 00:27:12;;;;;;;7.03;3.38;;;11.30;99.90;;;;;;4884139;29;20124;-92
2023/04/30 00:29:38;;;;;;;7.93;3.22;;;11.30;99.90;;;;;;4870911;29;20049;-92
2023/04/30 00:32:05;;;;;;;8.13;3.03;;;11.20;99.90;;;;;;4866686;29;20045;-92
2023/04/30 00:34:30;;;;;;;8.63;3.00;;;11.20;99.90;;;;;;4850878;29;20097;-93
2023/04/30 00:36:56;;;;;;;9.35;3.15;;;11.10;99.90;;;;;;4859714;29;20050;-91
2023/04/30 00:39:22;;;;;;;9.35;3.40;;;11.10;99.90;;;;;;4850021;29;20050;-92
2023/04/30 00:41:47;;;;;;;8.15;3.00;;;11.00;99.90;;;;;;4877271;29;20469;-92
2023/04/30 00:44:13;;;;;;;6.22;2.88;;;11.00;99.90;;;;;;4882282;29;20060;-93
2023/04/30 00:46:38;;;;;;;9.63;3.17;;;11.00;99.90;;;;;;4863179;29;20049;-92
2023/04/30 00:49:04;;;;;;;9.77;3.13;;;10.90;99.90;;;;;;4862181;29;20090;-92
2023/04/30 00:51:31;;;;;;;6.65;2.97;;;10.80;99.90;;;;;;4867278;29;20105;-92
2023/04/30 00:54:01;;;;;;;8.55;2.80;;;10.80;99.90;;;;;;4858287;29;20041;-93
2023/04/30 00:56:31;;;;;;;6.40;2.85;;;10.70;99.90;;;;;;4867165;29;20080;-92
2023/04/30 00:58:56;;;;;;;6.90;3.10;;;10.70;99.90;;;;;;4879654;29;20092;-92
2023/04/30 01:01:30;;;;;;;6.90;3.05;;;10.70;99.90;;;;;;4858698;29;20048;-90
2023/04/30 01:03:56;;;;;;;9.88;2.95;;;10.70;99.90;;;;;;4878224;29;20045;-92
2023/04/30 01:06:22;;;;;;;6.50;2.92;;;10.60;99.90;;;;;;4864757;29;20102;-91
2023/04/30 01:08:48;;;;;;;8.05;3.33;;;10.50;99.90;;;;;;4862187;29;20077;-92
2023/04/30 01:11:48;;;;;;;9.80;3.25;;;10.50;99.90;;;;;;4851084;29;20104;-92
2023/04/30 01:14:39;;;;;;;7.63;2.85;;;10.50;99.90;;;;;;4874087;29;20072;-91
2023/04/30 01:17:12;;;;;;;8.68;3.30;;;10.40;99.90;;;;;;4850861;29;20049;-92
2023/04/30 01:19:43;;;;;;;7.77;2.80;;;10.40;99.90;;;;;;4875138;29;20048;-91
2023/04/30 01:22:17;;;;;;;8.43;3.10;;;10.30;99.90;;;;;;4867814;29;20045;-91
2023/04/30 01:24:49;;;;;;;9.45;2.83;;;10.30;99.90;;;;;;4864440;29;20042;-92
2023/04/30 01:27:51;;;;;;;6.80;2.70;;;10.30;99.90;;;;;;4839140;29;20136;-92
2023/04/30 01:30:17;;;;;;;7.22;2.70;;;10.20;99.90;;;;;;4832416;29;20060;-91
2023/04/30 01:32:43;;;;;;;8.88;3.40;;;10.10;99.90;;;;;;4882315;29;20104;-92
2023/04/30 01:35:09;;;;;;;8.25;2.90;;;10.10;99.90;;;;;;4878752;29;20088;-91
2023/04/30 01:38:03;;;;;;;7.45;2.75;;;10.00;99.90;;;;;;4857788;29;20124;-93
2023/04/30 01:40:43;;;;;;;7.35;3.00;;;10.00;99.90;;;;;;4865160;29;20076;-91
2023/04/30 01:43:32;;;;;;;6.45;2.63;;;10.00;99.90;;;;;;4881731;29;20041;-90
2023/04/30 01:46:13;;;;;;;6.97;2.83;;;9.90;99.90;;;;;;4862854;29;20037;-92
2023/04/30 01:48:48;;;;;;;8.38;2.92;;;9.90;99.90;;;;;;4839075;29;20053;-91
2023/04/30 01:51:23;;;;;;;7.03;2.45;;;9.80;99.90;;;;;;4882760;29;20053;-91
2023/04/30 01:53:52;;;;;;;6.45;3.05;;;9.80;99.90;;;;;;4865851;29;20473;-92
2023/04/30 01:56:26;;;;;;;7.45;2.95;;;9.80;99.90;;;;;;4864594;29;20045;-93
2023/04/30 01:58:52;;;;;;;6.88;2.85;;;9.70;99.90;;;;;;4848618;29;20084;-93
2023/04/30 02:01:32;;;;;;;6.57;2.97;;;9.70;99.90;;;;;;4864195;29;20505;-92
2023/04/30 02:03:58;;;;;;;6.32;2.70;;;9.70;99.90;;;;;;4863559;29;20049;-92
2023/04/30 02:06:28;;;;;;;6.88;2.88;;;9.60;99.90;;;;;;4849198;29;20052;-92
2023/04/30 02:08:55;;;;;;;5.57;2.53;;;9.60;99.90;;;;;;4863774;29;20082;-92
2023/04/30 02:11:23;;;;;;;8.15;2.85;;;9.50;99.90;;;;;;4861317;29;20101;-92
2023/04/30 02:13:49;;;;;;;5.13;2.40;;;9.50;99.90;;;;;;4848100;29;21720;-92
2023/04/30 02:16:15;;;;;;;6.93;2.38;;;9.50;99.90;;;;;;4863489;29;20045;-92
2023/04/30 02:18:41;;;;;;;5.22;2.53;;;9.40;99.90;;;;;;4863572;29;20049;-92
2023/04/30 02:21:06;;;;;;;7.50;2.30;;;9.40;99.90;;;;;;4857455;29;20049;-91
2023/04/30 02:23:32;;;;;;;5.80;2.42;;;9.30;99.90;;;;;;4881797;29;20185;-91
2023/04/30 02:25:57;;;;;;;7.78;2.80;;;9.30;99.90;;;;;;4851755;29;20532;-92
2023/04/30 02:28:23;;;;;;;6.57;2.65;;;9.20;99.90;;;;;;4847255;29;20042;-92
2023/04/30 02:30:49;;;;;;;5.85;2.50;;;9.20;99.90;;;;;;4860373;29;20048;-93
2023/04/30 02:33:14;;;;;;;8.02;2.47;;;9.20;99.90;;;;;;4871428;29;20049;-92
2023/04/30 02:35:40;;;;;;;6.30;2.35;;;9.10;99.90;;;;;;4876082;29;20049;-92
2023/04/30 02:38:06;;;;;;;5.93;2.40;;;9.10;99.90;;;;;;4877093;29;20042;-92
2023/04/30 02:40:31;;;;;;;4.95;2.30;;;9.00;99.90;;;;;;4876288;29;20074;-92
2023/04/30 02:42:57;;;;;;;5.13;2.22;;;9.00;99.90;;;;;;4863527;29;20462;-92
2023/04/30 02:45:23;;;;;;;6.07;2.45;;;8.90;99.90;;;;;;4862632;29;20049;-92
2023/04/30 02:47:49;;;;;;;4.60;2.50;;;8.90;99.90;;;;;;4846480;29;20113;-92
2023/04/30 02:50:14;;;;;;;7.20;2.80;;;8.90;99.90;;;;;;4846008;29;20542;-92
2023/04/30 02:52:40;;;;;;;5.88;2.47;;;8.90;99.90;;;;;;4863016;29;20050;-92
2023/04/30 02:55:06;;;;;;;6.38;2.35;;;8.90;99.90;;;;;;4846645;29;20151;-92
2023/04/30 02:57:32;;;;;;;4.63;2.33;;;8.90;99.90;;;;;;4857934;29;20421;-93
2023/04/30 02:59:57;;;;;;;5.00;2.65;;;8.90;99.90;;;;;;4865191;29;20052;-92
2023/04/30 03:02:23;;;;;;;6.63;2.60;;;8.80;99.90;;;;;;4864686;29;20045;-93
2023/04/30 03:04:49;;;;;;;6.80;2.50;;;8.80;99.90;;;;;;4865013;29;20509;-93
2023/04/30 03:07:15;;;;;;;5.70;2.65;;;8.80;99.90;;;;;;4865096;29;20057;-92
2023/04/30 03:09:40;;;;;;;5.57;2.42;;;8.80;99.90;;;;;;4864374;29;20053;-92
2023/04/30 03:12:06;;;;;;;6.75;2.65;;;8.80;99.90;;;;;;4881857;29;20108;-92
2023/04/30 03:14:31;;;;;;;7.75;2.83;;;8.80;99.90;;;;;;4865113;29;20045;-92
2023/04/30 03:16:57;;;;;;;6.30;2.40;;;8.80;99.90;;;;;;4865214;29;20048;-92
2023/04/30 03:19:24;;;;;;;5.32;2.50;;;8.70;99.90;;;;;;4865174;29;20053;-91
2023/04/30 03:21:54;;;;;;;5.13;2.58;;;8.70;99.90;;;;;;4864575;29;20045;-92
2023/04/30 03:24:19;;;;;;;6.78;2.70;;;8.60;99.90;;;;;;4864435;29;20076;-91
2023/04/30 03:26:46;;;;;;;6.35;2.60;;;8.60;99.90;;;;;;4864524;29;20077;-91
2023/04/30 03:29:12;;;;;;;5.93;2.70;;;8.60;99.90;;;;;;4828123;29;20042;-92
2023/04/30 03:31:37;;;;;;;5.22;2.50;;;8.60;99.90;;;;;;4843739;29;20551;-92
2023/04/30 03:34:03;;;;;;;6.22;2.90;;;8.50;99.90;;;;;;4844109;29;20141;-91
2023/04/30 03:36:28;;;;;;;5.85;2.47;;;8.50;99.90;;;;;;4844243;29;20586;-91
2023/04/30 03:38:54;;;;;;;7.88;3.20;;;8.50;99.90;;;;;;4827387;29;20054;-92
2023/04/30 03:41:20;;;;;;;5.93;2.67;;;8.50;99.90;;;;;;4854048;29;20069;-91
2023/04/30 03:43:45;;;;;;;5.75;2.80;;;8.50;99.90;;;;;;4872900;29;20055;-91
2023/04/30 03:46:11;;;;;;;6.10;3.00;;;8.40;99.90;;;;;;4860694;29;20041;-92
2023/04/30 03:48:37;;;;;;;5.68;2.80;;;8.40;99.90;;;;;;4858587;29;20050;-92
2023/04/30 03:51:02;;;;;;;6.07;2.90;;;8.40;99.90;;;;;;4862499;29;20046;-92
2023/04/30 03:53:28;;;;;;;6.82;3.10;;;8.40;99.90;;;;;;4846015;29;20053;-91
2023/04/30 03:55:54;;;;;;;6.43;3.38;;;8.30;99.90;;;;;;4862761;29;20053;-90
2023/04/30 03:58:20;;;;;;;5.65;3.00;;;8.30;99.90;;;;;;4849381;29;20037;-92
2023/04/30 04:00:47;;;;;;;7.05;3.20;;;8.30;99.90;;;;;;4830891;29;20041;-91
2023/04/30 04:03:13;;;;;;;5.53;3.22;;;8.40;99.90;;;;;;4855425;29;20046;-91
2023/04/30 04:05:39;;;;;;;6.70;3.45;;;8.30;99.90;;;;;;4830139;29;20623;-91
2023/04/30 04:08:06;;;;;;;6.53;3.13;;;8.30;99.90;;;;;;4847458;29;20054;-92
2023/04/30 04:10:33;;;;;;;7.28;3.28;;;8.30;99.90;;;;;;4836661;29;20101;-92
2023/04/30 04:12:58;;;;;;;7.97;3.25;;;8.30;99.90;;;;;;4848292;29;20050;-91
2023/04/30 04:15:24;;;;;;;8.98;3.47;;;8.30;99.90;;;;;;4865258;29;20068;-90
2023/04/30 04:17:50;;;;;;;7.47;3.50;;;8.30;99.90;;;;;;4844761;29;20041;-90
2023/04/30 04:20:16;;;;;;;6.78;3.00;;;8.30;99.90;;;;;;4848008;29;20041;-91
2023/04/30 04:22:42;;;;;;;7.78;3.30;;;8.30;99.90;;;;;;4849037;29;20479;-91
2023/04/30 04:25:08;;;;;;;6.22;3.05;;;8.30;99.90;;;;;;4845833;29;20132;-91
2023/04/30 04:27:34;;;;;;;7.28;3.20;;;8.30;99.90;;;;;;4847138;29;20054;-91
2023/04/30 04:30:01;;;;;;;5.97;2.75;;;8.30;99.90;;;;;;4846899;29;20615;-92
2023/04/30 04:32:27;;;;;;;7.72;3.45;;;8.30;99.90;;;;;;4863965;29;20382;-91
2023/04/30 04:34:53;;;;;;;7.10;3.78;;;8.30;99.90;;;;;;4863446;29;20045;-92
2023/04/30 04:37:19;;;;;;;6.68;3.22;;;8.30;99.90;;;;;;4846638;29;20137;-90
2023/04/30 04:39:45;;;;;;;5.82;3.20;;;8.30;99.90;;;;;;4853291;29;20102;-90
2023/04/30 04:42:12;;;;;;;9.60;4.07;;;8.20;99.90;;;;;;4864293;29;20147;-92
2023/04/30 04:44:40;;;;;;;9.18;3.60;;;8.20;99.90;;;;;;4847827;29;20053;-92
2023/04/30 04:47:05;;;;;;;8.57;3.58;;;8.20;99.90;;;;;;4838393;29;20084;-93
2023/04/30 04:49:31;;;;;;;6.85;3.40;;;8.30;99.90;;;;;;4847504;29;20075;-91
2023/04/30 04:51:57;;;;;;;7.97;3.45;;;8.20;99.90;;;;;;4847686;29;20045;-92
2023/04/30 04:54:22;;;;;;;8.25;3.90;;;8.20;99.90;;;;;;4847659;29;20043;-92
2023/04/30 04:56:48;;;;;;;7.63;3.70;;;8.20;99.90;;;;;;4863564;29;20116;-91
2023/04/30 04:59:14;;;;;;;7.45;3.50;;;8.20;99.90;;;;;;4847835;29;20524;-90
2023/04/30 05:01:40;;;;;;;8.65;3.75;;;8.20;99.90;;;;;;4858262;29;20073;-91
2023/04/30 05:04:06;;;;;;;7.30;3.67;;;8.20;99.90;;;;;;4846898;29;20057;-91
2023/04/30 05:06:31;;;;;;;7.75;4.25;;;8.20;99.90;;;;;;4843597;29;20089;-90
2023/04/30 05:08:57;;;;;;;8.90;3.55;;;8.30;99.90;;;;;;4839370;29;20113;-90
2023/04/30 05:11:23;;;;;;;8.48;4.00;;;8.30;99.90;;;;;;4845130;29;20045;-91
2023/04/30 05:13:48;;;;;;;6.80;3.25;;;8.30;99.90;;;;;;4843770;29;20041;-91
2023/04/30 05:16:15;;;;;;;8.73;3.72;;;8.20;99.90;;;;;;4843865;29;20046;-91
2023/04/30 05:18:40;;;;;;;8.38;3.40;;;8.20;99.90;;;;;;4843138;29;20053;-91
2023/04/30 05:21:06;;;;;;;6.70;3.55;;;8.30;99.90;;;;;;4843787;29;20241;-91
2023/04/30 05:23:31;;;;;;;8.68;3.55;;;8.20;99.90;;;;;;4836871;29;20085;-91
2023/04/30 05:25:57;;;;;;;7.03;3.70;;;8.30;99.90;;;;;;4843689;29;20046;-90
2023/04/30 05:28:22;;;;;;;5.68;3.30;;;8.30;99.90;;;;;;4844809;29;20038;-91
2023/04/30 05:30:48;;;;;;;9.60;4.07;;;8.30;99.90;;;;;;4843818;29;20052;-90
2023/04/30 05:33:14;;;;;;;9.93;3.88;;;8.30;99.90;;;;;;4844732;29;20052;-91
2023/04/30 05:35:39;;;;;;;7.93;3.70;;;8.30;99.90;;;;;;4843515;29;20046;-91
2023/04/30 05:38:05;;;;;;;6.65;3.40;;;8.30;99.90;;;;;;4844348;29;20046;-92
2023/04/30 05:40:31;;;;;;;7.28;3.28;;;8.30;99.90;;;;;;4853470;29;20033;-92
2023/04/30 05:42:56;;;;;;;9.07;3.80;;;8.30;99.90;;;;;;4846378;29;20045;-90
2023/04/30 05:45:22;;;;;;;6.97;3.58;;;8.30;99.90;;;;;;4844285;29;20124;-90
2023/04/30 05:47:48;;;;;;;9.52;4.03;;;8.40;99.90;;;;;;4860945;29;20090;-90
2023/04/30 05:50:14;;;;;;;7.00;3.60;;;8.40;99.90;;;;;;4863662;29;20156;-91
2023/04/30 05:52:39;;;;;;;6.28;3.50;;;8.40;99.90;;;;;;4848432;29;20054;-89
2023/04/30 05:55:06;;;;;;;9.90;3.63;;;8.50;99.90;;;;;;4852348;29;20050;-91
2023/04/30 05:57:31;;;;;;;8.93;3.47;;;8.40;99.90;;;;;;4832298;29;20041;-91
2023/04/30 05:59:57;;;;;;;8.00;3.38;;;8.50;99.90;;;;;;4853837;29;20056;-90
2023/04/30 06:02:22;;;;;;;10.07;3.78;;;8.50;99.90;;;;;;4844906;29;20045;-91
2023/04/30 06:04:48;;;;;;;7.90;3.17;;;8.50;99.90;;;;;;4850401;29;20483;-89
2023/04/30 06:07:14;;;;;;;10.38;3.40;;;8.50;99.90;;;;;;4842611;29;20062;-90
2023/04/30 06:09:40;;;;;;;8.60;3.15;;;8.50;99.90;;;;;;4851213;29;20451;-90
2023/04/30 06:12:05;;;;;;;7.13;3.10;;;8.50;99.90;;;;;;4850837;29;20410;-90
2023/04/30 06:14:31;;;;;;;10.60;3.47;;;8.50;99.90;;;;;;4850995;29;20041;-91
2023/04/30 06:16:57;;;;;;;12.20;3.60;;;8.50;99.90;;;;;;4855593;29;20132;-89
2023/04/30 06:19:22;;;;;;;8.30;2.90;;;8.50;99.90;;;;;;4840040;29;20141;-88
2023/04/30 06:21:48;;;;;;;10.45;3.33;;;8.60;99.90;;;;;;4842589;29;20046;-89
2023/04/30 06:24:13;;;;;;;7.30;3.22;;;8.60;99.90;;;;;;4838990;29;20050;-88
2023/04/30 06:26:39;;;;;;;8.48;3.28;;;8.70;99.90;;;;;;4825792;29;20102;-87
2023/04/30 06:29:04;;;;;;;10.75;3.17;;;8.70;99.90;;;;;;4827428;29;20505;-88
2023/04/30 06:31:30;;;;;;;10.02;3.33;;;8.70;99.90;;;;;;4845676;29;20038;-89
2023/04/30 06:33:56;;;;;;;11.77;3.35;;;8.80;99.90;;;;;;4847953;29;20126;-88
2023/04/30 06:36:21;;;;;;;10.40;3.30;;;8.90;99.90;;;;;;4843362;29;20041;-88
2023/04/30 06:38:47;;;;;;;8.50;3.35;;;8.90;99.90;;;;;;4842676;29;20054;-90
2023/04/30 06:41:13;;;;;;;7.78;3.38;;;9.00;99.90;;;;;;4842800;29;20042;-90
2023/04/30 06:43:39;;;;;;;8.38;3.10;;;9.00;99.90;;;;;;4845602;29;20081;-89
2023/04/30 06:46:05;;;;;;;9.63;3.03;;;9.10;99.90;;;;;;4851178;29;20038;-88
2023/04/30 06:48:31;;;;;;;6.47;2.63;;;9.10;99.90;;;;;;4844553;29;20408;-90
2023/04/30 06:50:57;;;;;;;9.43;3.03;;;9.20;99.90;;;;;;4857956;29;20048;-89
2023/04/30 06:53:23;;;;;;;10.55;3.40;;;9.30;99.90;;;;;;4845404;29;20085;-89
2023/04/30 06:55:49;;;;;;;8.88;3.90;;;9.30;99.90;;;;;;4847202;29;20080;-91
2023/04/30 06:58:15;;;;;;;8.60;3.15;;;9.40;99.90;;;;;;4860889;29;20132;-92
2023/04/30 07:00:41;;;;;;;8.50;3.13;;;9.40;99.90;;;;;;4851149;29;20438;-91
2023/04/30 07:03:07;;;;;;;13.98;3.10;;;9.40;99.90;;;;;;4860083;29;20136;-90
2023/04/30 07:05:32;;;;;;;12.70;3.40;;;9.50;99.90;;;;;;4847625;29;20116;-90
2023/04/30 07:08:00;;;;;;;9.80;3.40;;;9.50;99.90;;;;;;4850903;29;20050;-90
2023/04/30 07:10:26;;;;;;;9.38;3.42;;;9.50;99.90;;;;;;4826254;29;20426;-89
2023/04/30 07:12:52;;;;;;;10.45;3.20;;;9.60;99.90;;;;;;4833752;29;20065;-88
2023/04/30 07:15:18;;;;;;;9.77;3.22;;;9.60;99.90;;;;;;4855812;29;20057;-93
2023/04/30 07:17:44;;;;;;;8.13;3.00;;;9.70;99.90;;;;;;4858971;29;20045;-94
2023/04/30 07:20:11;;;;;;;10.52;3.38;;;9.70;99.90;;;;;;4871334;29;20045;-93
2023/04/30 07:22:36;;;;;;;10.35;3.17;;;9.80;99.90;;;;;;4845074;29;20057;-94
2023/04/30 07:25:02;;;;;;;10.95;3.25;;;9.80;99.90;;;;;;4828367;29;20046;-95
2023/04/30 07:27:27;;;;;;;14.70;3.53;;;9.80;99.90;;;;;;4838223;29;20132;-89
2023/04/30 07:29:54;;;;;;;13.02;3.58;;;9.90;99.90;;;;;;4849398;29;20517;-91
2023/04/30 07:32:20;;;;;;;12.63;3.88;;;10.00;99.90;;;;;;4860763;29;20121;-90
2023/04/30 07:34:46;;;;;;;12.27;3.50;;;10.00;99.90;;;;;;4849485;29;20045;-92
2023/04/30 07:37:12;;;;;;;10.23;3.03;;;10.10;99.90;;;;;;4856281;29;20124;-90
2023/04/30 07:39:37;;;;;;;10.32;2.83;;;10.20;99.90;;;;;;4860492;29;20081;-89
2023/04/30 07:42:03;;;;;;;9.13;3.20;;;10.30;99.90;;;;;;4844623;29;20065;-88
2023/04/30 07:44:30;;;;;;;9.70;3.05;;;10.40;99.90;;;;;;4844276;29;20049;-89
2023/04/30 07:46:56;;;;;;;7.53;3.10;;;10.50;99.90;;;;;;4844302;29;20402;-89
2023/04/30 07:49:21;;;;;;;11.88;3.05;;;10.50;99.90;;;;;;4861365;29;20049;-90
2023/04/30 07:51:47;;;;;;;9.00;2.72;;;10.60;99.90;;;;;;4844045;29;20056;-90
2023/04/30 07:54:13;;;;;;;12.00;3.00;;;10.70;99.90;;;;;;4861826;29;20061;-91
2023/04/30 07:56:38;;;;;;;9.48;2.80;;;10.70;99.90;;;;;;4845050;29;20050;-90
2023/04/30 07:59:04;;;;;;;9.07;2.75;;;10.80;99.90;;;;;;4844120;29;20084;-90
2023/04/30 08:01:30;;;;;;;7.65;2.63;;;10.90;99.90;;;;;;4844952;29;20045;-90
2023/04/30 08:03:56;;;;;;;8.13;3.25;;;10.90;99.90;;;;;;4844815;29;20057;-89
2023/04/30 08:06:22;;;;;;;6.90;2.53;;;11.00;99.90;;;;;;4859941;29;20057;-89
2023/04/30 08:08:47;;;;;;;9.93;2.75;;;11.10;99.90;;;;;;4860822;29;20424;-91
2023/04/30 08:11:14;;;;;;;8.65;3.00;;;11.20;99.90;;;;;;4845029;29;20058;-90
2023/04/30 08:13:40;;;;;;;5.65;2.65;;;11.30;99.90;;;;;;4860262;29;20064;-90
2023/04/30 08:16:06;;;;;;;9.70;2.60;;;11.40;99.90;;;;;;4845196;29;20069;-90
2023/04/30 08:18:32;;;;;;;8.07;2.42;;;11.50;99.90;;;;;;4844212;29;20494;-90
2023/04/30 08:20:58;;;;;;;7.90;2.70;;;11.50;99.90;;;;;;4844306;29;20050;-89
2023/04/30 08:23:24;;;;;;;7.20;2.42;;;11.60;99.90;;;;;;4844564;29;20050;-90
2023/04/30 08:25:50;;;;;;;9.43;2.25;;;11.70;99.90;;;;;;4843418;29;20057;-90
2023/04/30 08:28:16;;;;;;;9.73;2.50;;;11.80;99.90;;;;;;4860817;29;20110;-89
2023/04/30 08:30:42;;;;;;;10.18;2.47;;;11.90;99.90;;;;;;4843804;29;20414;-90
2023/04/30 08:33:08;;;;;;;10.20;2.67;;;11.90;99.90;;;;;;4843629;29;20056;-88
2023/04/30 08:35:33;;;;;;;8.98;2.42;;;12.00;99.90;;;;;;4860779;29;20042;-90
2023/04/30 08:37:59;;;;;;;6.22;2.47;;;12.10;99.90;;;;;;4860793;29;20045;-90
2023/04/30 08:40:26;;;;;;;12.48;2.53;;;12.10;99.90;;;;;;4843716;29;20080;-90
2023/04/30 08:43:06;;;;;;;11.32;2.60;;;12.20;99.90;;;;;;4860917;29;20045;-91
2023/04/30 08:45:33;;;;;;;7.13;2.28;;;12.20;99.90;;;;;;4863858;29;20498;-90
2023/04/30 08:47:59;;;;;;;8.35;2.65;;;12.20;99.90;;;;;;4847505;29;20050;-91
2023/04/30 08:50:26;;;;;;;8.07;2.30;;;12.30;99.90;;;;;;4864249;29;20514;-90
2023/04/30 08:52:52;;;;;;;8.75;2.30;;;12.40;99.90;;;;;;4847515;29;20061;-89
2023/04/30 08:55:17;;;;;;;9.50;2.53;;;12.50;99.90;;;;;;4863772;29;20049;-89
2023/04/30 08:57:43;;;;;;;9.10;2.67;;;12.50;99.90;;;;;;4864158;29;20392;-91
2023/04/30 09:00:09;;;;;;;8.05;2.50;;;12.60;99.90;;;;;;4847861;29;20049;-91
2023/04/30 09:02:40;;;;;;;9.45;2.67;;;12.60;99.90;;;;;;4863253;29;20170;-91
2023/04/30 09:05:11;;;;;;;8.80;2.55;;;12.60;99.90;;;;;;4863812;29;20045;-90
2023/04/30 09:07:42;;;;;;;8.23;2.38;;;12.60;99.90;;;;;;4847123;29;20502;-91
2023/04/30 09:10:21;;;;;;;6.43;2.20;;;12.70;99.90;;;;;;4846710;29;20432;-90
2023/04/30 09:13:02;;;;;;;10.63;2.50;;;12.80;99.90;;;;;;4846991;29;20065;-90
2023/04/30 09:15:29;;;;;;;12.88;3.00;;;12.90;99.90;;;;;;4863071;29;20595;-91
2023/04/30 09:18:10;;;;;;;9.90;2.67;;;12.90;99.90;;;;;;4863734;29;20093;-91
2023/04/30 09:20:37;;;;;;;10.13;3.13;;;12.90;99.90;;;;;;4847629;29;20049;-90
2023/04/30 09:23:07;;;;;;;7.00;2.45;;;13.00;99.90;;;;;;4862925;29;20406;-90
2023/04/30 09:25:40;;;;;;;9.18;2.90;;;13.10;99.90;;;;;;4846960;29;20045;-90
2023/04/30 09:28:10;;;;;;;9.30;2.75;;;13.10;99.90;;;;;;4863473;29;20056;-90
2023/04/30 09:30:36;;;;;;;10.38;2.92;;;13.20;99.90;;;;;;4862578;29;20047;-90
2023/04/30 09:33:02;;;;;;;9.50;2.83;;;13.30;99.90;;;;;;4847151;29;20480;-90
2023/04/30 09:35:29;;;;;;;11.82;2.90;;;13.40;99.90;;;;;;4847102;29;20042;-90
2023/04/30 09:37:55;;;;;;;11.13;2.60;;;13.50;99.90;;;;;;4845655;29;20113;-89
2023/04/30 09:40:39;;;;;;;7.53;2.70;;;13.60;99.90;;;;;;4862807;29;20045;-90
2023/04/30 09:43:05;;;;;;;10.75;2.90;;;13.70;99.90;;;;;;4863010;29;20060;-89
2023/04/30 09:45:41;;;;;;;11.98;2.92;;;13.80;99.90;;;;;;4862366;29;20140;-90
2023/04/30 09:48:09;;;;;;;6.07;2.50;;;13.90;99.90;;;;;;4862994;29;20069;-90
2023/04/30 09:50:39;;;;;;;10.35;2.65;;;13.90;99.90;;;;;;4845317;29;20061;-90
2023/04/30 09:53:09;;;;;;;6.97;2.33;;;14.00;99.90;;;;;;4862882;29;20128;-90
2023/04/30 09:55:36;;;;;;;8.07;2.40;;;14.10;99.90;;;;;;4862059;29;20057;-89
2023/04/30 09:58:06;;;;;;;6.68;2.22;;;14.20;99.90;;;;;;4845499;29;20379;-89
2023/04/30 10:00:36;;;;;;;9.20;2.67;;;14.20;99.90;;;;;;4845413;29;20045;-89
2023/04/30 10:03:07;;;;;;;7.38;2.28;;;14.30;99.90;;;;;;4862338;29;20070;-90
2023/04/30 10:05:45;;;;;;;8.10;2.55;;;14.40;99.90;;;;;;4844369;29;20516;-89
2023/04/30 10:08:30;;;;;;;7.40;2.35;;;14.50;99.90;;;;;;4845805;29;20049;-90
2023/04/30 10:11:02;;;;;;;5.47;2.50;;;14.50;99.90;;;;;;4862233;29;20390;-88
2023/04/30 10:13:32;;;;;;;7.45;2.67;;;14.60;99.90;;;;;;4861333;29;20089;-88
2023/04/30 10:16:10;;;;;;;10.10;2.60;;;14.70;99.90;;;;;;4845618;29;20050;-89
2023/04/30 10:18:40;;;;;;;6.85;2.33;;;14.80;99.90;;;;;;4844368;29;20057;-88
2023/04/30 10:21:10;;;;;;;7.13;2.42;;;14.80;99.90;;;;;;4845064;29;20124;-88
2023/04/30 10:23:42;;;;;;;6.72;2.28;;;14.90;99.90;;;;;;4845111;29;20056;-88
2023/04/30 10:26:11;;;;;;;5.40;2.20;;;15.00;99.90;;;;;;4861176;29;20042;-88
2023/04/30 10:28:37;;;;;;;10.80;2.35;;;15.10;99.90;;;;;;4861513;29;20056;-89
2023/04/30 10:31:04;;;;;;;5.50;2.22;;;15.20;99.90;;;;;;4864915;29;20050;-88
2023/04/30 10:34:04;;;;;;;5.30;2.33;;;15.20;99.90;;;;;;4861004;29;20064;-88
2023/04/30 10:36:44;;;;;;;5.82;2.47;;;15.30;99.90;;;;;;4860935;29;20447;-88
2023/04/30 10:39:11;;;;;;;4.65;2.35;;;15.40;99.90;;;;;;4844679;29;20520;-88
2023/04/30 10:41:37;;;;;;;6.63;2.42;;;15.50;99.90;;;;;;4844121;29;20082;-88
2023/04/30 10:44:04;;;;;;;6.50;2.33;;;15.60;99.90;;;;;;4861607;29;20045;-88
2023/04/30 10:46:29;;;;;;;6.38;2.25;;;15.70;99.90;;;;;;4860809;29;20089;-88
2023/04/30 10:48:56;;;;;;;6.93;2.50;;;15.80;99.90;;;;;;4844461;29;20406;-89
2023/04/30 10:51:22;;;;;;;5.78;2.28;;;15.90;99.90;;;;;;4844763;29;20050;-88
2023/04/30 10:53:53;;;;;;;5.68;1.85;;;15.90;99.90;;;;;;4860501;29;20866;-88
2023/04/30 10:56:46;;;;;;;9.05;2.40;;;16.00;97.90;;;;;;4844829;29;20105;-88
2023/04/30 10:59:12;;;;;;;5.68;2.15;;;16.10;99.40;;;;;;4841324;29;20064;-88
2023/04/30 11:01:58;;;;;;;5.13;2.20;;;16.10;99.90;;;;;;4843744;29;20080;-87
2023/04/30 11:04:24;;;;;;;4.97;2.15;;;16.20;99.90;;;;;;4861264;29;20054;-87
2023/04/30 11:06:55;;;;;;;7.32;2.45;;;16.30;99.90;;;;;;4860136;29;20105;-88
2023/04/30 11:09:39;;;;;;;6.30;2.10;;;16.40;99.80;;;;;;4843809;29;20132;-87
2023/04/30 11:12:12;;;;;;;5.75;2.20;;;16.40;99.30;;;;;;4844933;29;20078;-88
2023/04/30 11:14:43;;;;;;;4.15;2.00;;;16.50;99.60;;;;;;4843604;29;20053;-88
2023/04/30 11:17:22;;;;;;;5.38;2.13;;;16.50;99.80;;;;;;4844225;29;20049;-88
2023/04/30 11:19:50;;;;;;;6.18;2.20;;;16.60;99.70;;;;;;4843972;29;20057;-88
2023/04/30 11:22:18;;;;;;;7.55;2.20;;;16.60;99.30;;;;;;4843508;29;20057;-88
2023/04/30 11:24:59;;;;;;;5.60;2.13;;;16.70;99.70;;;;;;4860592;29;20041;-88
2023/04/30 11:27:27;;;;;;;5.28;1.80;;;16.80;99.90;;;;;;4844514;29;20558;-88
2023/04/30 11:29:53;;;;;;;5.13;2.10;;;16.90;99.90;;;;;;4843088;29;20053;-88
2023/04/30 11:32:21;;;;;;;5.28;2.00;;;17.00;99.90;;;;;;4844555;29;20053;-88
2023/04/30 11:34:47;;;;;;;5.18;2.13;;;17.10;99.90;;;;;;4843891;29;20057;-88
2023/04/30 11:37:28;;;;;;;5.25;1.95;;;17.20;99.90;;;;;;4860003;29;20045;-88
2023/04/30 11:39:55;;;;;;;5.10;2.22;;;17.20;99.90;;;;;;4844040;29;20058;-88
2023/04/30 11:42:20;;;;;;;5.05;1.98;;;17.30;99.10;;;;;;4844556;29;20053;-88
2023/04/30 11:44:46;;;;;;;7.45;2.22;;;17.30;98.50;;;;;;4843470;29;20052;-88
2023/04/30 11:47:13;;;;;;;4.63;2.13;;;17.20;95.20;;;;;;4844354;29;20050;-87
2023/04/30 11:49:39;;;;;;;4.90;1.77;;;17.30;97.40;;;;;;4843705;29;20102;-88
2023/04/30 11:52:05;;;;;;;6.82;2.00;;;17.40;98.40;;;;;;4843286;29;20042;-87
2023/04/30 11:54:31;;;;;;;6.00;2.22;;;17.40;98.10;;;;;;4843890;29;20049;-87
2023/04/30 11:57:02;;;;;;;6.22;2.08;;;17.50;98.40;;;;;;4860062;29;20049;-88
2023/04/30 11:59:38;;;;;;;4.43;1.80;;;17.50;97.10;;;;;;4844365;29;20064;-88
2023/04/30 12:02:05;;;;;;;5.57;2.17;;;17.60;97.10;;;;;;4844526;29;20057;-87
2023/04/30 12:04:31;;;;;;;6.35;2.00;;;17.60;98.00;;;;;;4843161;29;20086;-87
2023/04/30 12:06:57;;;;;;;4.93;1.83;;;17.70;98.30;;;;;;4860248;29;20486;-88
2023/04/30 12:09:23;;;;;;;4.85;1.85;;;17.70;98.80;;;;;;4843829;29;20057;-87
2023/04/30 12:11:48;;;;;;;6.45;2.08;;;17.80;99.20;;;;;;4842997;29;20158;-88
2023/04/30 12:14:14;;;;;;;6.32;2.10;;;17.80;98.10;;;;;;4860237;29;20406;-88
2023/04/30 12:16:49;;;;;;;6.53;2.10;;;17.90;97.70;;;;;;4843656;29;20046;-87
2023/04/30 12:19:15;;;;;;;5.88;2.10;;;18.00;97.40;;;;;;4862729;29;20057;-87
2023/04/30 12:21:46;;;;;;;5.15;2.13;;;18.10;98.10;;;;;;4863934;29;20060;-87
2023/04/30 12:24:13;;;;;;;5.68;2.20;;;18.10;98.60;;;;;;4864173;29;20049;-88
2023/04/30 12:26:40;;;;;;;6.93;2.08;;;18.20;97.30;;;;;;4846513;29;20110;-87
2023/04/30 12:29:11;;;;;;;5.78;2.20;;;18.20;97.80;;;;;;4847455;29;20049;-87
2023/04/30 12:31:38;;;;;;;5.72;2.33;;;18.30;98.20;;;;;;4863474;29;20045;-88
2023/04/30 12:34:08;;;;;;;6.45;2.13;;;18.30;97.50;;;;;;4863133;29;20064;-88
2023/04/30 12:36:37;;;;;;;5.55;2.20;;;18.30;96.10;;;;;;4847051;29;20486;-88
2023/04/30 12:39:09;;;;;;;5.72;1.80;;;18.40;95.50;;;;;;4863174;29;20046;-88
2023/04/30 12:41:43;;;;;;;5.43;2.10;;;18.40;92.50;;;;;;4846856;29;20045;-88
2023/04/30 12:44:19;;;;;;;;;;;18.40;95.10;;;;;;4847863;29;20053;-88
2023/04/30 12:46:49;;;;;;;5.85;1.98;;;18.40;97.30;;;;;;4846023;29;19963;-88
2023/04/30 12:49:26;;;;;;;4.30;1.85;;;18.50;96.80;;;;;;4846971;29;20055;-88
2023/04/30 12:52:00;;;;;;;5.40;1.88;;;18.60;97.60;;;;;;4846707;29;20502;-88
2023/04/30 12:54:30;;;;;;;6.25;2.20;;;18.70;96.80;;;;;;4846161;29;20490;-88